sensor_id;sensor_type;location;lat;lon;timestamp;pressure;altitude;pressure_sealevel;temperature;humidity
48563;BME280;34981;49.104;11.396;2023-04-05T00:00:37;95986.59;;;-0.56;100.00
48563;BME280;34981;49.104;11.396;2023-04-05T00:03:04;95986.34;;;-0.74;100.00
48563;BME280;34981;49.104;11.396;2023-04-05T00:05:32;95992.44;;;-0.67;100.00
48563;BME280;34981;49.104;11.396;2023-04-05T00:08:00;95977.41;;;-0.73;100.00
48563;BME280;34981;49.104;11.396;2023-04-05T00:10:29;95985.16;;;-0.59;100.00
48563;BME280;34981;49.104;11.396;2023-04-05T00:12:56;95978.44;;;-0.61;100.00
48563;BME280;34981;49.104;11.396;2023-04-05T00:15:24;95973.34;;;-0.69;100.00
48563;BME280;34981;49.104;11.396;2023-04-05T00:17:52;95970.09;;;-0.71;100.00
48563;BME280;34981;49.104;11.396;2023-04-05T00:20:20;95972.16;;;-0.67;100.00
48563;BME280;34981;49.104;11.396;2023-04-05T00:22:47;95969.69;;;-0.68;100.00
48563;BME280;34981;49.104;11.396;2023-04-05T00:25:16;95963.97;;;-0.79;100.00
48563;BME280;34981;49.104;11.396;2023-04-05T00:27:44;95969.06;;;-0.70;100.00
48563;BME280;34981;49.104;11.396;2023-04-05T00:30:12;95965.81;;;-0.72;100.00
48563;BME280;34981;49.104;11.396;2023-04-05T00:32:47;95959.72;;;-0.73;100.00
48563;BME280;34981;49.104;11.396;2023-04-05T00:35:15;95969.69;;;-0.68;100.00
48563;BME280;34981;49.104;11.396;2023-04-05T00:37:42;95964.81;;;-0.71;100.00
48563;BME280;34981;49.104;11.396;2023-04-05T00:40:10;95965.22;;;-0.74;100.00
48563;BME280;34981;49.104;11.396;2023-04-05T00:42:37;95954.59;;;-0.94;100.00
48563;BME280;34981;49.104;11.396;2023-04-05T00:45:04;95949.91;;;-1.05;100.00
48563;BME280;34981;49.104;11.396;2023-04-05T00:47:31;95947.66;;;-1.02;100.00
48563;BME280;34981;49.104;11.396;2023-04-05T00:49:58;95945.25;;;-1.03;100.00
48563;BME280;34981;49.104;11.396;2023-04-05T00:52:27;95955.16;;;-1.12;100.00
48563;BME280;34981;49.104;11.396;2023-04-05T00:54:54;95943.50;;;-1.24;100.00
48563;BME280;34981;49.104;11.396;2023-04-05T00:57:22;95942.34;;;-1.15;100.00
48563;BME280;34981;49.104;11.396;2023-04-05T00:59:51;95941.78;;;-1.10;100.00
48563;BME280;34981;49.104;11.396;2023-04-05T01:02:20;95940.31;;;-1.13;100.00
48563;BME280;34981;49.104;11.396;2023-04-05T01:04:54;95934.22;;;-1.20;100.00
48563;BME280;34981;49.104;11.396;2023-04-05T01:10:07;95932.19;;;-1.18;100.00
48563;BME280;34981;49.104;11.396;2023-04-05T01:12:35;95937.25;;;-1.17;100.00
48563;BME280;34981;49.104;11.396;2023-04-05T01:15:03;95931.75;;;-1.22;100.00
48563;BME280;34981;49.104;11.396;2023-04-05T01:17:30;95918.09;;;-1.38;100.00
48563;BME280;34981;49.104;11.396;2023-04-05T01:20:04;95922.84;;;-1.21;100.00
48563;BME280;34981;49.104;11.396;2023-04-05T01:31:22;95911.97;;;-1.45;100.00
48563;BME280;34981;49.104;11.396;2023-04-05T01:36:39;95906.47;;;-1.57;100.00
48563;BME280;34981;49.104;11.396;2023-04-05T01:39:08;95912.56;;;-1.50;100.00
48563;BME280;34981;49.104;11.396;2023-04-05T01:41:38;95909.34;;;-1.45;100.00
48563;BME280;34981;49.104;11.396;2023-04-05T01:44:06;95898.78;;;-1.45;100.00
48563;BME280;34981;49.104;11.396;2023-04-05T01:46:33;95910.25;;;-1.25;100.00
48563;BME280;34981;49.104;11.396;2023-04-05T01:49:00;95902.66;;;-1.48;100.00
48563;BME280;34981;49.104;11.396;2023-04-05T01:51:27;95896.84;;;-1.30;100.00
48563;BME280;34981;49.104;11.396;2023-04-05T01:53:54;95891.94;;;-1.40;100.00
48563;BME280;34981;49.104;11.396;2023-04-05T01:56:21;95878.69;;;-1.53;100.00
48563;BME280;34981;49.104;11.396;2023-04-05T01:58:48;95887.50;;;-1.39;100.00
48563;BME280;34981;49.104;11.396;2023-04-05T02:01:15;95888.94;;;-1.30;100.00
48563;BME280;34981;49.104;11.396;2023-04-05T02:03:43;95889.53;;;-1.35;100.00
48563;BME280;34981;49.104;11.396;2023-04-05T02:06:10;95876.94;;;-1.39;100.00
48563;BME280;34981;49.104;11.396;2023-04-05T02:08:37;95879.34;;;-1.44;100.00
48563;BME280;34981;49.104;11.396;2023-04-05T02:11:04;95862.00;;;-1.67;100.00
48563;BME280;34981;49.104;11.396;2023-04-05T02:13:31;95859.78;;;-1.70;100.00
48563;BME280;34981;49.104;11.396;2023-04-05T02:15:58;95871.22;;;-1.49;100.00
48563;BME280;34981;49.104;11.396;2023-04-05T02:18:25;95868.97;;;-1.52;100.00
48563;BME280;34981;49.104;11.396;2023-04-05T02:21:00;95860.66;;;-1.56;100.00
48563;BME280;34981;49.104;11.396;2023-04-05T02:23:28;95863.25;;;-1.63;100.00
48563;BME280;34981;49.104;11.396;2023-04-05T02:25:56;95862.03;;;-1.60;100.00
48563;BME280;34981;49.104;11.396;2023-04-05T02:28:23;95855.31;;;-1.69;100.00
48563;BME280;34981;49.104;11.396;2023-04-05T02:30:53;95853.72;;;-1.64;100.00
48563;BME280;34981;49.104;11.396;2023-04-05T02:33:20;95854.47;;;-1.76;100.00
48563;BME280;34981;49.104;11.396;2023-04-05T02:35:49;95862.34;;;-1.83;100.00
48563;BME280;34981;49.104;11.396;2023-04-05T02:38:18;95856.72;;;-1.73;100.00
48563;BME280;34981;49.104;11.396;2023-04-05T02:40:45;95853.66;;;-1.77;100.00
48563;BME280;34981;49.104;11.396;2023-04-05T02:43:12;95842.56;;;-1.66;100.00
48563;BME280;34981;49.104;11.396;2023-04-05T02:45:40;95847.00;;;-1.66;100.00
48563;BME280;34981;49.104;11.396;2023-04-05T02:48:07;95844.91;;;-1.84;100.00
48563;BME280;34981;49.104;11.396;2023-04-05T02:50:34;95848.41;;;-1.70;100.00
48563;BME280;34981;49.104;11.396;2023-04-05T02:53:02;95847.19;;;-1.68;100.00
48563;BME280;34981;49.104;11.396;2023-04-05T02:55:29;95828.84;;;-1.89;100.00
48563;BME280;34981;49.104;11.396;2023-04-05T02:58:00;95833.31;;;-1.89;100.00
48563;BME280;34981;49.104;11.396;2023-04-05T03:00:34;95838.22;;;-1.80;100.00
48563;BME280;34981;49.104;11.396;2023-04-05T03:03:03;95839.91;;;-1.66;100.00
48563;BME280;34981;49.104;11.396;2023-04-05T03:05:31;95843.19;;;-1.57;100.00
48563;BME280;34981;49.104;11.396;2023-04-05T03:07:58;95832.59;;;-1.70;100.00
48563;BME280;34981;49.104;11.396;2023-04-05T03:10:30;95834.84;;;-1.67;100.00
48563;BME280;34981;49.104;11.396;2023-04-05T03:13:11;95844.22;;;-1.58;100.00
48563;BME280;34981;49.104;11.396;2023-04-05T03:15:40;95827.75;;;-1.67;100.00
48563;BME280;34981;49.104;11.396;2023-04-05T03:18:11;95827.53;;;-1.72;100.00
48563;BME280;34981;49.104;11.396;2023-04-05T03:20:40;95834.66;;;-1.66;100.00
48563;BME280;34981;49.104;11.396;2023-04-05T03:23:15;95834.66;;;-1.66;100.00
48563;BME280;34981;49.104;11.396;2023-04-05T03:25:43;95827.56;;;-1.65;100.00
48563;BME280;34981;49.104;11.396;2023-04-05T03:28:11;95828.75;;;-1.68;100.00
48563;BME280;34981;49.104;11.396;2023-04-05T03:30:42;95818.59;;;-1.77;100.00
48563;BME280;34981;49.104;11.396;2023-04-05T03:33:19;95828.16;;;-1.70;100.00
48563;BME280;34981;49.104;11.396;2023-04-05T03:35:49;95816.78;;;-1.77;100.00
48563;BME280;34981;49.104;11.396;2023-04-05T03:38:17;95814.97;;;-1.76;100.00
48563;BME280;34981;49.104;11.396;2023-04-05T03:41:07;95799.03;;;-1.96;100.00
48563;BME280;34981;49.104;11.396;2023-04-05T03:43:35;95811.84;;;-1.93;100.00
48563;BME280;34981;49.104;11.396;2023-04-05T03:46:02;95800.00;;;-2.04;100.00
48563;BME280;34981;49.104;11.396;2023-04-05T03:48:29;95807.78;;;-1.89;100.00
48563;BME280;34981;49.104;11.396;2023-04-05T03:50:56;95803.56;;;-1.90;100.00
48563;BME280;34981;49.104;11.396;2023-04-05T03:53:24;95804.13;;;-1.94;100.00
48563;BME280;34981;49.104;11.396;2023-04-05T03:55:54;95811.63;;;-1.98;100.00
48563;BME280;34981;49.104;11.396;2023-04-05T03:58:37;95799.97;;;-2.10;100.00
48563;BME280;34981;49.104;11.396;2023-04-05T04:01:04;95809.19;;;-1.93;100.00
48563;BME280;34981;49.104;11.396;2023-04-05T04:03:32;95793.28;;;-2.19;100.00
48563;BME280;34981;49.104;11.396;2023-04-05T04:06:00;95795.28;;;-2.21;100.00
48563;BME280;34981;49.104;11.396;2023-04-05T04:08:27;95804.44;;;-2.11;100.00
48563;BME280;34981;49.104;11.396;2023-04-05T04:10:57;95806.47;;;-2.13;100.00
48563;BME280;34981;49.104;11.396;2023-04-05T04:13:28;95808.50;;;-2.08;100.00
48563;BME280;34981;49.104;11.396;2023-04-05T04:16:00;95811.75;;;-2.13;100.00
48563;BME280;34981;49.104;11.396;2023-04-05T04:18:38;95819.22;;;-2.10;100.00
48563;BME280;34981;49.104;11.396;2023-04-05T04:21:19;95817.19;;;-2.14;100.00
48563;BME280;34981;49.104;11.396;2023-04-05T04:24:11;95807.75;;;-2.37;100.00
48563;BME280;34981;49.104;11.396;2023-04-05T04:26:52;95812.03;;;-2.29;100.00
48563;BME280;34981;49.104;11.396;2023-04-05T04:29:40;95821.00;;;-2.17;100.00
48563;BME280;34981;49.104;11.396;2023-04-05T04:32:21;95825.03;;;-2.27;100.00
48563;BME280;34981;49.104;11.396;2023-04-05T04:35:16;95823.03;;;-2.19;100.00
48563;BME280;34981;49.104;11.396;2023-04-05T04:37:57;95826.47;;;-2.18;100.00
48563;BME280;34981;49.104;11.396;2023-04-05T04:40:44;95827.28;;;-2.18;100.00
48563;BME280;34981;49.104;11.396;2023-04-05T04:43:35;95829.72;;;-2.16;100.00
48563;BME280;34981;49.104;11.396;2023-04-05T04:46:27;95830.72;;;-2.17;100.00
48563;BME280;34981;49.104;11.396;2023-04-05T04:49:01;95830.66;;;-2.30;100.00
48563;BME280;34981;49.104;11.396;2023-04-05T04:51:32;95836.38;;;-2.27;100.00
48563;BME280;34981;49.104;11.396;2023-04-05T04:53:59;95842.22;;;-2.25;100.00
48563;BME280;34981;49.104;11.396;2023-04-05T04:56:26;95840.38;;;-2.31;100.00
48563;BME280;34981;49.104;11.396;2023-04-05T04:58:55;95832.19;;;-2.43;100.00
48563;BME280;34981;49.104;11.396;2023-04-05T05:01:22;95844.25;;;-2.27;100.00
48563;BME280;34981;49.104;11.396;2023-04-05T05:03:51;95845.25;;;-2.28;100.00
48563;BME280;34981;49.104;11.396;2023-04-05T05:06:26;95847.31;;;-2.23;100.00
48563;BME280;34981;49.104;11.396;2023-04-05T05:08:55;95848.97;;;-2.16;100.00
48563;BME280;34981;49.104;11.396;2023-04-05T05:11:24;95848.59;;;-2.13;100.00
48563;BME280;34981;49.104;11.396;2023-04-05T05:13:51;95852.31;;;-2.01;100.00
48563;BME280;34981;49.104;11.396;2023-04-05T05:16:22;95865.00;;;-1.83;100.00
48563;BME280;34981;49.104;11.396;2023-04-05T05:18:50;95865.44;;;-1.73;100.00
48563;BME280;34981;49.104;11.396;2023-04-05T05:21:17;95867.72;;;-1.63;100.00
48563;BME280;34981;49.104;11.396;2023-04-05T05:23:51;95880.81;;;-1.29;100.00
48563;BME280;34981;49.104;11.396;2023-04-05T05:26:18;95872.09;;;-1.29;100.00
48563;BME280;34981;49.104;11.396;2023-04-05T05:28:45;95872.94;;;-1.22;100.00
48563;BME280;34981;49.104;11.396;2023-04-05T05:31:14;95864.03;;;-1.14;100.00
48563;BME280;34981;49.104;11.396;2023-04-05T05:33:43;95855.72;;;-1.18;100.00
48563;BME280;34981;49.104;11.396;2023-04-05T05:36:15;95854.75;;;-0.91;100.00
48563;BME280;34981;49.104;11.396;2023-04-05T05:38:42;95871.44;;;-0.51;100.00
48563;BME280;34981;49.104;11.396;2023-04-05T05:41:10;95850.31;;;-0.57;100.00
48563;BME280;34981;49.104;11.396;2023-04-05T05:43:37;95848.50;;;-0.37;100.00
48563;BME280;34981;49.104;11.396;2023-04-05T05:46:04;95831.22;;;-0.33;100.00
48563;BME280;34981;49.104;11.396;2023-04-05T05:48:31;95832.00;;;-0.13;100.00
48563;BME280;34981;49.104;11.396;2023-04-05T05:50:59;95821.84;;;-0.16;100.00
48563;BME280;34981;49.104;11.396;2023-04-05T05:53:27;95789.75;;;-0.26;100.00
48563;BME280;34981;49.104;11.396;2023-04-05T05:55:54;95780.81;;;-0.25;100.00
48563;BME280;34981;49.104;11.396;2023-04-05T05:58:22;95770.66;;;-0.15;100.00
48563;BME280;34981;49.104;11.396;2023-04-05T06:00:49;95758.47;;;-0.16;100.00
48563;BME280;34981;49.104;11.396;2023-04-05T06:03:17;95741.34;;;-0.13;100.00
48563;BME280;34981;49.104;11.396;2023-04-05T06:05:49;95735.97;;;0.20;100.00
48563;BME280;34981;49.104;11.396;2023-04-05T06:08:18;95733.94;;;0.22;100.00
48563;BME280;34981;49.104;11.396;2023-04-05T06:10:46;95721.34;;;0.11;100.00
48563;BME280;34981;49.104;11.396;2023-04-05T06:13:14;95722.75;;;0.51;100.00
48563;BME280;34981;49.104;11.396;2023-04-05T06:15:41;95704.03;;;0.53;100.00
48563;BME280;34981;49.104;11.396;2023-04-05T06:18:09;95691.97;;;0.32;100.00
48563;BME280;34981;49.104;11.396;2023-04-05T06:20:36;95696.94;;;0.15;100.00
48563;BME280;34981;49.104;11.396;2023-04-05T06:23:06;95694.16;;;0.04;100.00
48563;BME280;34981;49.104;11.396;2023-04-05T06:25:33;95699.56;;;0.22;100.00
48563;BME280;34981;49.104;11.396;2023-04-05T06:28:02;95695.47;;;0.26;100.00
48563;BME280;34981;49.104;11.396;2023-04-05T06:30:29;95691.19;;;0.25;100.00
48563;BME280;34981;49.104;11.396;2023-04-05T06:32:57;95688.66;;;0.43;100.00
48563;BME280;34981;49.104;11.396;2023-04-05T06:35:24;95693.44;;;0.59;100.00
48563;BME280;34981;49.104;11.396;2023-04-05T06:37:52;95703.38;;;0.89;100.00
48563;BME280;34981;49.104;11.396;2023-04-05T06:40:19;95689.34;;;0.88;100.00
48563;BME280;34981;49.104;11.396;2023-04-05T06:42:46;95688.94;;;1.16;100.00
48563;BME280;34981;49.104;11.396;2023-04-05T06:45:19;95685.97;;;1.06;100.00
48563;BME280;34981;49.104;11.396;2023-04-05T06:47:46;95690.97;;;1.14;100.00
48563;BME280;34981;49.104;11.396;2023-04-05T06:50:13;95681.56;;;1.18;100.00
48563;BME280;34981;49.104;11.396;2023-04-05T06:52:40;95683.69;;;1.71;100.00
48563;BME280;34981;49.104;11.396;2023-04-05T06:55:07;95691.66;;;2.37;100.00
48563;BME280;34981;49.104;11.396;2023-04-05T06:57:35;95683.09;;;2.65;100.00
48563;BME280;34981;49.104;11.396;2023-04-05T07:00:02;95663.31;;;3.02;100.00
48563;BME280;34981;49.104;11.396;2023-04-05T07:02:34;95662.66;;;3.19;100.00
48563;BME280;34981;49.104;11.396;2023-04-05T07:05:02;95661.25;;;3.51;100.00
48563;BME280;34981;49.104;11.396;2023-04-05T07:07:31;95660.09;;;3.70;100.00
48563;BME280;34981;49.104;11.396;2023-04-05T07:09:59;95654.59;;;4.00;100.00
48563;BME280;34981;49.104;11.396;2023-04-05T07:12:26;95665.72;;;3.74;100.00
48563;BME280;34981;49.104;11.396;2023-04-05T07:14:53;95690.09;;;4.62;100.00
48563;BME280;34981;49.104;11.396;2023-04-05T07:17:20;95687.31;;;4.86;100.00
48563;BME280;34981;49.104;11.396;2023-04-05T07:19:47;95705.59;;;3.74;100.00
48563;BME280;34981;49.104;11.396;2023-04-05T07:22:14;95731.38;;;3.38;100.00
48563;BME280;34981;49.104;11.396;2023-04-05T07:24:43;95748.56;;;3.24;100.00
48563;BME280;34981;49.104;11.396;2023-04-05T07:27:11;95757.13;;;3.38;100.00
48563;BME280;34981;49.104;11.396;2023-04-05T07:29:38;95769.94;;;3.29;100.00
48563;BME280;34981;49.104;11.396;2023-04-05T07:32:08;95773.28;;;3.25;100.00
48563;BME280;34981;49.104;11.396;2023-04-05T07:34:36;95786.06;;;3.04;100.00
48563;BME280;34981;49.104;11.396;2023-04-05T07:37:04;95788.72;;;2.74;100.00
48563;BME280;34981;49.104;11.396;2023-04-05T07:39:31;95812.59;;;2.26;100.00
48563;BME280;34981;49.104;11.396;2023-04-05T07:41:58;95818.59;;;2.70;100.00
48563;BME280;34981;49.104;11.396;2023-04-05T07:44:25;95816.03;;;2.45;100.00
48563;BME280;34981;49.104;11.396;2023-04-05T07:46:52;95829.66;;;2.67;100.00
48563;BME280;34981;49.104;11.396;2023-04-05T07:49:23;95833.78;;;2.26;100.00
48563;BME280;34981;49.104;11.396;2023-04-05T07:51:52;95838.13;;;2.39;100.00
48563;BME280;34981;49.104;11.396;2023-04-05T07:54:19;95841.59;;;2.58;100.00
48563;BME280;34981;49.104;11.396;2023-04-05T07:56:46;95840.84;;;2.69;100.00
48563;BME280;34981;49.104;11.396;2023-04-05T07:59:15;95848.94;;;2.56;100.00
48563;BME280;34981;49.104;11.396;2023-04-05T08:01:42;95843.44;;;2.39;100.00
48563;BME280;34981;49.104;11.396;2023-04-05T08:04:09;95845.94;;;3.00;100.00
48563;BME280;34981;49.104;11.396;2023-04-05T08:06:36;95846.41;;;2.97;100.00
48563;BME280;34981;49.104;11.396;2023-04-05T08:09:04;95841.09;;;2.97;100.00
48563;BME280;34981;49.104;11.396;2023-04-05T08:11:31;95841.88;;;2.68;100.00
48563;BME280;34981;49.104;11.396;2023-04-05T08:13:59;95851.91;;;2.84;100.00
48563;BME280;34981;49.104;11.396;2023-04-05T08:16:26;95850.34;;;3.36;100.00
48563;BME280;34981;49.104;11.396;2023-04-05T08:18:53;95847.06;;;2.93;100.00
48563;BME280;34981;49.104;11.396;2023-04-05T08:21:21;95857.16;;;3.02;100.00
48563;BME280;34981;49.104;11.396;2023-04-05T08:23:48;95842.78;;;3.22;100.00
48563;BME280;34981;49.104;11.396;2023-04-05T08:26:16;95828.75;;;3.44;100.00
48563;BME280;34981;49.104;11.396;2023-04-05T08:28:43;95829.78;;;3.43;100.00
48563;BME280;34981;49.104;11.396;2023-04-05T08:31:10;95823.03;;;3.82;100.00
48563;BME280;34981;49.104;11.396;2023-04-05T08:33:39;95828.25;;;4.36;100.00
48563;BME280;34981;49.104;11.396;2023-04-05T08:36:07;95818.75;;;3.70;100.00
48563;BME280;34981;49.104;11.396;2023-04-05T08:38:34;95831.41;;;4.73;100.00
48563;BME280;34981;49.104;11.396;2023-04-05T08:44:00;95810.22;;;5.51;100.00
48563;BME280;34981;49.104;11.396;2023-04-05T08:46:25;95802.78;;;5.70;100.00
48563;BME280;34981;49.104;11.396;2023-04-05T08:48:53;95798.53;;;6.02;100.00
48563;BME280;34981;49.104;11.396;2023-04-05T08:51:20;95790.66;;;5.45;100.00
48563;BME280;34981;49.104;11.396;2023-04-05T08:53:48;95802.47;;;5.66;100.00
48563;BME280;34981;49.104;11.396;2023-04-05T08:56:17;95817.34;;;5.17;100.00
48563;BME280;34981;49.104;11.396;2023-04-05T08:58:58;95818.28;;;5.39;100.00
48563;BME280;34981;49.104;11.396;2023-04-05T09:01:28;95822.47;;;5.97;100.00
48563;BME280;34981;49.104;11.396;2023-04-05T09:03:56;95844.03;;;5.05;100.00
48563;BME280;34981;49.104;11.396;2023-04-05T09:06:25;95838.81;;;5.56;100.00
48563;BME280;34981;49.104;11.396;2023-04-05T09:08:56;95843.84;;;5.69;100.00
48563;BME280;34981;49.104;11.396;2023-04-05T09:11:23;95841.63;;;5.94;100.00
48563;BME280;34981;49.104;11.396;2023-04-05T09:13:51;95847.06;;;6.38;100.00
48563;BME280;34981;49.104;11.396;2023-04-05T09:16:18;95859.88;;;6.02;100.00
48563;BME280;34981;49.104;11.396;2023-04-05T09:18:46;95853.78;;;6.79;100.00
48563;BME280;34981;49.104;11.396;2023-04-05T09:21:13;95872.19;;;6.03;100.00
48563;BME280;34981;49.104;11.396;2023-04-05T09:23:49;95876.34;;;5.09;100.00
48563;BME280;34981;49.104;11.396;2023-04-05T09:26:24;95881.63;;;5.94;100.00
48563;BME280;34981;49.104;11.396;2023-04-05T09:28:56;95873.03;;;5.75;100.00
48563;BME280;34981;49.104;11.396;2023-04-05T09:31:29;95886.44;;;5.35;100.00
48563;BME280;34981;49.104;11.396;2023-04-05T09:33:58;95880.91;;;6.15;100.00
48563;BME280;34981;49.104;11.396;2023-04-05T09:36:26;95880.44;;;6.95;100.00
48563;BME280;34981;49.104;11.396;2023-04-05T09:39:04;95879.78;;;6.67;100.00
48563;BME280;34981;49.104;11.396;2023-04-05T09:41:32;95893.50;;;6.37;100.00
48563;BME280;34981;49.104;11.396;2023-04-05T09:44:00;95899.25;;;6.29;100.00
48563;BME280;34981;49.104;11.396;2023-04-05T09:46:28;95896.97;;;6.54;100.00
48563;BME280;34981;49.104;11.396;2023-04-05T09:48:57;95908.22;;;6.56;100.00
48563;BME280;34981;49.104;11.396;2023-04-05T09:51:30;95904.63;;;7.27;100.00
48563;BME280;34981;49.104;11.396;2023-04-05T09:56:32;95920.31;;;6.80;100.00
48563;BME280;34981;49.104;11.396;2023-04-05T09:59:21;95921.97;;;6.64;100.00
48563;BME280;34981;49.104;11.396;2023-04-05T10:01:51;95932.56;;;6.76;100.00
48563;BME280;34981;49.104;11.396;2023-04-05T10:04:18;95949.31;;;6.21;100.00
48563;BME280;34981;49.104;11.396;2023-04-05T10:06:46;95949.97;;;6.79;100.00
48563;BME280;34981;49.104;11.396;2023-04-05T10:09:13;95954.66;;;6.21;100.00
48563;BME280;34981;49.104;11.396;2023-04-05T10:11:41;95948.59;;;7.15;100.00
48563;BME280;34981;49.104;11.396;2023-04-05T10:14:09;95943.41;;;7.52;100.00
48563;BME280;34981;49.104;11.396;2023-04-05T10:16:44;95948.31;;;7.38;100.00
48563;BME280;34981;49.104;11.396;2023-04-05T10:19:15;95957.88;;;6.90;100.00
48563;BME280;34981;49.104;11.396;2023-04-05T10:21:47;95956.66;;;7.20;100.00
48563;BME280;34981;49.104;11.396;2023-04-05T10:24:34;95972.78;;;6.86;100.00
48563;BME280;34981;49.104;11.396;2023-04-05T10:29:58;95974.53;;;6.97;100.00
48563;BME280;34981;49.104;11.396;2023-04-05T10:32:23;95978.22;;;7.78;100.00
48563;BME280;34981;49.104;11.396;2023-04-05T10:34:56;95973.53;;;7.91;100.00
48563;BME280;34981;49.104;11.396;2023-04-05T10:37:40;95982.00;;;7.82;100.00
48563;BME280;34981;49.104;11.396;2023-04-05T10:40:14;95987.31;;;6.95;100.00
48563;BME280;34981;49.104;11.396;2023-04-05T10:42:45;95988.59;;;7.10;100.00
48563;BME280;34981;49.104;11.396;2023-04-05T10:45:12;95991.03;;;6.94;100.00
48563;BME280;34981;49.104;11.396;2023-04-05T10:47:46;95995.44;;;7.00;100.00
48563;BME280;34981;49.104;11.396;2023-04-05T10:50:16;95997.06;;;6.51;100.00
48563;BME280;34981;49.104;11.396;2023-04-05T10:52:46;96002.06;;;6.81;100.00
48563;BME280;34981;49.104;11.396;2023-04-05T10:55:14;96008.22;;;6.98;100.00
48563;BME280;34981;49.104;11.396;2023-04-05T10:57:43;96001.31;;;7.41;100.00
48563;BME280;34981;49.104;11.396;2023-04-05T11:00:11;96010.56;;;7.33;100.00
48563;BME280;34981;49.104;11.396;2023-04-05T11:02:39;96009.50;;;7.13;100.00
48563;BME280;34981;49.104;11.396;2023-04-05T11:05:06;96014.97;;;6.84;100.00
48563;BME280;34981;49.104;11.396;2023-04-05T11:07:53;96034.47;;;6.35;100.00
48563;BME280;34981;49.104;11.396;2023-04-05T11:10:22;96021.34;;;7.00;100.00
48563;BME280;34981;49.104;11.396;2023-04-05T11:18:00;96027.25;;;7.02;100.00
48563;BME280;34981;49.104;11.396;2023-04-05T11:20:38;96040.22;;;6.60;100.00
48563;BME280;34981;49.104;11.396;2023-04-05T11:23:05;96039.91;;;6.11;100.00
48563;BME280;34981;49.104;11.396;2023-04-05T11:25:36;96043.91;;;5.97;100.00
48563;BME280;34981;49.104;11.396;2023-04-05T11:28:04;96035.53;;;6.05;100.00
48563;BME280;34981;49.104;11.396;2023-04-05T11:30:50;96043.09;;;5.85;100.00
48563;BME280;34981;49.104;11.396;2023-04-05T11:33:34;96038.75;;;6.52;100.00
48563;BME280;34981;49.104;11.396;2023-04-05T11:36:02;96035.75;;;6.82;100.00
48563;BME280;34981;49.104;11.396;2023-04-05T11:38:29;96029.03;;;6.80;100.00
48563;BME280;34981;49.104;11.396;2023-04-05T11:41:11;96029.31;;;6.78;100.00
48563;BME280;34981;49.104;11.396;2023-04-05T11:43:38;96031.66;;;7.30;100.00
48563;BME280;34981;49.104;11.396;2023-04-05T11:46:07;96037.44;;;7.22;100.00
48563;BME280;34981;49.104;11.396;2023-04-05T11:48:35;96036.69;;;7.10;100.00
48563;BME280;34981;49.104;11.396;2023-04-05T11:51:06;96029.19;;;7.07;100.00
48563;BME280;34981;49.104;11.396;2023-04-05T11:53:33;96031.06;;;6.89;100.00
48563;BME280;34981;49.104;11.396;2023-04-05T11:56:10;96040.50;;;6.30;100.00
48563;BME280;34981;49.104;11.396;2023-04-05T11:58:39;96032.19;;;6.60;100.00
48563;BME280;34981;49.104;11.396;2023-04-05T12:01:07;96032.06;;;6.50;100.00
48563;BME280;34981;49.104;11.396;2023-04-05T12:03:35;96025.59;;;6.79;100.00
48563;BME280;34981;49.104;11.396;2023-04-05T12:06:03;96022.78;;;7.08;100.00
48563;BME280;34981;49.104;11.396;2023-04-05T12:11:05;96032.56;;;7.19;100.00
48563;BME280;34981;49.104;11.396;2023-04-05T12:13:32;96027.38;;;7.29;100.00
48563;BME280;34981;49.104;11.396;2023-04-05T12:16:02;96034.94;;;7.15;100.00
48563;BME280;34981;49.104;11.396;2023-04-05T12:18:31;96023.78;;;6.68;100.00
48563;BME280;34981;49.104;11.396;2023-04-05T12:20:59;96026.28;;;6.75;100.00
48563;BME280;34981;49.104;11.396;2023-04-05T12:23:27;96030.13;;;6.79;100.00
48563;BME280;34981;49.104;11.396;2023-04-05T12:25:54;96033.75;;;6.56;100.00
48563;BME280;34981;49.104;11.396;2023-04-05T12:28:22;96044.88;;;6.36;100.00
48563;BME280;34981;49.104;11.396;2023-04-05T12:33:26;96033.25;;;5.97;100.00
48563;BME280;34981;49.104;11.396;2023-04-05T12:35:54;96040.84;;;6.50;100.00
48563;BME280;34981;49.104;11.396;2023-04-05T12:38:25;96032.38;;;6.53;100.00
48563;BME280;34981;49.104;11.396;2023-04-05T12:40:53;96032.91;;;6.39;100.00
48563;BME280;34981;49.104;11.396;2023-04-05T12:43:20;96030.56;;;6.59;100.00
48563;BME280;34981;49.104;11.396;2023-04-05T12:45:48;96027.50;;;6.67;100.00
48563;BME280;34981;49.104;11.396;2023-04-05T12:48:19;96023.38;;;6.76;100.00
48563;BME280;34981;49.104;11.396;2023-04-05T12:50:48;96022.91;;;7.18;100.00
48563;BME280;34981;49.104;11.396;2023-04-05T12:53:18;96018.09;;;7.15;100.00
48563;BME280;34981;49.104;11.396;2023-04-05T12:55:47;96022.69;;;7.02;100.00
48563;BME280;34981;49.104;11.396;2023-04-05T12:58:15;96024.38;;;7.25;100.00
48563;BME280;34981;49.104;11.396;2023-04-05T13:00:43;96035.00;;;7.20;100.00
48563;BME280;34981;49.104;11.396;2023-04-05T13:03:14;96042.09;;;6.93;100.00
48563;BME280;34981;49.104;11.396;2023-04-05T13:05:43;96047.56;;;7.03;100.00
48563;BME280;34981;49.104;11.396;2023-04-05T13:08:10;96048.22;;;7.10;100.00
48563;BME280;34981;49.104;11.396;2023-04-05T13:10:37;96046.44;;;7.16;100.00
48563;BME280;34981;49.104;11.396;2023-04-05T13:13:04;96046.34;;;7.11;100.00
48563;BME280;34981;49.104;11.396;2023-04-05T13:15:31;96052.91;;;7.03;100.00
48563;BME280;34981;49.104;11.396;2023-04-05T13:17:59;96047.06;;;7.23;100.00
48563;BME280;34981;49.104;11.396;2023-04-05T13:20:26;96051.09;;;7.25;100.00
48563;BME280;34981;49.104;11.396;2023-04-05T13:22:53;96054.56;;;7.42;100.00
48563;BME280;34981;49.104;11.396;2023-04-05T13:25:20;96050.94;;;7.54;100.00
48563;BME280;34981;49.104;11.396;2023-04-05T13:27:47;96033.22;;;7.69;100.00
48563;BME280;34981;49.104;11.396;2023-04-05T13:30:14;95987.81;;;7.53;100.00